createdAt,value
2022-09-22T00:01:36.227Z,2.95
2022-09-22T00:04:07.440Z,3.30
2022-09-22T00:06:38.944Z,2.55
2022-09-22T00:09:09.734Z,3.13
2022-09-22T00:11:40.743Z,2.50
2022-09-22T00:14:12.488Z,3.15
2022-09-22T00:16:45.010Z,3.05
2022-09-22T00:19:16.728Z,2.50
2022-09-22T00:21:45.828Z,3.42
2022-09-22T00:24:14.828Z,3.67
2022-09-22T00:26:43.753Z,3.97
2022-09-22T00:29:14.581Z,1.98
2022-09-22T00:31:43.430Z,2.47
2022-09-22T00:34:16.775Z,2.13
2022-09-22T00:36:45.594Z,4.13
2022-09-22T00:39:14.842Z,2.42
2022-09-22T00:41:45.796Z,3.95
2022-09-22T00:44:39.575Z,3.33
2022-09-22T00:47:16.325Z,2.50
2022-09-22T00:49:50.041Z,2.28
2022-09-22T00:52:24.223Z,2.80
2022-09-22T00:54:56.232Z,3.10
2022-09-22T00:57:28.395Z,2.20
2022-09-22T00:59:58.486Z,3.05
2022-09-22T01:02:26.787Z,2.85
2022-09-22T01:04:55.322Z,2.58
2022-09-22T01:07:27.195Z,2.63
2022-09-22T01:09:56.338Z,3.05
2022-09-22T01:12:26.126Z,2.42
2022-09-22T01:15:06.915Z,2.38
2022-09-22T01:18:00.788Z,3.08
2022-09-22T01:21:26.201Z,2.50
2022-09-22T01:24:37.226Z,1.83
2022-09-22T01:27:30.984Z,2.47
2022-09-22T01:30:20.781Z,3.22
2022-09-22T01:33:14.336Z,1.50
2022-09-22T01:35:50.515Z,3.45
2022-09-22T01:38:31.667Z,2.80
2022-09-22T01:41:03.529Z,2.70
2022-09-22T01:43:44.069Z,2.35
2022-09-22T01:46:19.403Z,1.85
2022-09-22T01:48:52.711Z,2.45
2022-09-22T01:51:25.421Z,2.17
2022-09-22T01:53:59.037Z,1.98
2022-09-22T01:56:30.153Z,2.08
2022-09-22T01:59:04.287Z,2.47
2022-09-22T02:01:40.126Z,2.42
2022-09-22T02:04:14.417Z,1.90
2022-09-22T02:06:47.465Z,1.70
2022-09-22T02:09:19.350Z,2.17
2022-09-22T02:11:48.441Z,1.75
2022-09-22T02:14:17.321Z,1.67
2022-09-22T02:16:47.250Z,2.50
2022-09-22T02:19:19.504Z,1.65
2022-09-22T02:21:49.554Z,3.13
2022-09-22T02:24:31.844Z,2.10
2022-09-22T02:27:02.018Z,2.60
2022-09-22T02:29:33.481Z,2.17
2022-09-22T02:32:08.008Z,2.05
2022-09-22T02:34:36.478Z,1.98
2022-09-22T02:37:12.974Z,2.40
2022-09-22T02:39:45.939Z,2.00
2022-09-22T02:42:29.845Z,2.10
2022-09-22T02:45:02.904Z,1.98
2022-09-22T02:47:38.207Z,2.42
2022-09-22T02:50:10.909Z,2.33
2022-09-22T02:52:40.552Z,1.75
2022-09-22T02:55:12.194Z,2.40
2022-09-22T02:57:40.584Z,1.80
2022-09-22T03:00:09.806Z,1.90
2022-09-22T03:02:39.647Z,2.42
2022-09-22T03:05:08.783Z,2.00
2022-09-22T03:07:38.596Z,1.83
2022-09-22T03:10:08.646Z,1.73
2022-09-22T03:13:02.493Z,2.15
2022-09-22T03:15:31.121Z,1.98
2022-09-22T03:18:01.038Z,2.47
2022-09-22T03:20:29.409Z,1.92
2022-09-22T03:22:57.892Z,1.63
2022-09-22T03:25:26.462Z,1.63
2022-09-22T03:27:54.739Z,1.50
2022-09-22T03:30:25.604Z,1.70
2022-09-22T03:32:53.906Z,1.60
2022-09-22T03:35:23.720Z,2.17
2022-09-22T03:37:52.088Z,2.28
2022-09-22T03:40:22.279Z,1.70
2022-09-22T03:42:50.764Z,1.58
2022-09-22T03:45:19.356Z,1.85
2022-09-22T03:47:47.749Z,1.95
2022-09-22T03:50:16.186Z,1.85
2022-09-22T03:52:45.954Z,2.53
2022-09-22T03:55:14.346Z,1.98
2022-09-22T03:57:45.606Z,1.50
2022-09-22T04:00:15.686Z,2.60
2022-09-22T04:02:44.097Z,3.38
2022-09-22T04:05:12.851Z,1.90
2022-09-22T04:07:41.121Z,2.40
2022-09-22T04:10:11.489Z,2.60
2022-09-22T04:12:39.893Z,1.65
2022-09-22T04:15:09.075Z,2.10
2022-09-22T04:17:37.666Z,1.70
2022-09-22T04:20:07.147Z,1.40
2022-09-22T04:22:35.734Z,1.85
2022-09-22T04:25:04.089Z,1.88
2022-09-22T04:27:33.765Z,2.20
2022-09-22T04:30:06.064Z,1.85
2022-09-22T04:32:34.339Z,2.17
2022-09-22T04:35:02.770Z,1.65
2022-09-22T04:37:31.078Z,2.25
2022-09-22T04:40:00.276Z,2.08
2022-09-22T04:42:28.779Z,2.20
2022-09-22T04:45:02.126Z,1.90
2022-09-22T04:47:31.209Z,2.20
2022-09-22T04:49:59.575Z,1.80
2022-09-22T04:52:28.109Z,2.00
2022-09-22T04:54:56.384Z,2.35
2022-09-22T04:57:24.796Z,2.65
2022-09-22T04:59:53.420Z,2.38
2022-09-22T05:02:23.166Z,1.83
2022-09-22T05:04:51.436Z,2.75
2022-09-22T05:07:19.763Z,2.65
2022-09-22T05:09:48.735Z,1.92
2022-09-22T05:12:17.081Z,2.47
2022-09-22T05:14:45.541Z,1.60
2022-09-22T05:17:14.175Z,2.22
2022-09-22T05:19:43.914Z,2.63
2022-09-22T05:22:12.322Z,1.83
2022-09-22T05:24:42.617Z,2.10
2022-09-22T05:27:10.962Z,1.75
2022-09-22T05:29:39.299Z,2.20
2022-09-22T05:32:08.075Z,1.95
2022-09-22T05:34:36.367Z,3.55
2022-09-22T05:37:06.255Z,2.65
2022-09-22T05:39:34.550Z,2.33
2022-09-22T05:42:05.352Z,2.85
2022-09-22T05:44:35.847Z,2.38
2022-09-22T05:47:04.266Z,2.35
2022-09-22T05:49:32.573Z,2.72
2022-09-22T05:52:01.058Z,3.15
2022-09-22T05:54:30.808Z,1.90
2022-09-22T05:56:59.070Z,1.83
2022-09-22T05:59:27.385Z,2.15
2022-09-22T06:01:59.425Z,2.60
2022-09-22T06:04:28.215Z,3.03
2022-09-22T06:06:56.805Z,2.67
2022-09-22T06:09:25.126Z,3.15
2022-09-22T06:11:54.795Z,3.25
2022-09-22T06:14:23.514Z,2.00
2022-09-22T06:16:52.025Z,2.45
2022-09-22T06:19:20.561Z,1.90
2022-09-22T06:21:48.898Z,2.03
2022-09-22T06:24:17.180Z,2.05
2022-09-22T06:26:46.607Z,2.22
2022-09-22T06:29:16.433Z,1.90
2022-09-22T06:31:44.833Z,2.95
2022-09-22T06:34:13.438Z,1.70
2022-09-22T06:36:45.419Z,2.20
2022-09-22T06:39:14.913Z,1.95
2022-09-22T06:41:45.939Z,2.58
2022-09-22T06:44:15.858Z,3.47
2022-09-22T06:46:44.238Z,2.40
2022-09-22T06:49:14.702Z,2.42
2022-09-22T06:51:42.977Z,3.15
2022-09-22T06:54:11.456Z,1.92
2022-09-22T06:56:42.839Z,2.28
2022-09-22T06:59:14.357Z,1.67
2022-09-22T07:01:45.834Z,2.58
2022-09-22T07:04:14.936Z,2.00
2022-09-22T07:06:43.663Z,2.10
2022-09-22T07:09:15.678Z,1.92
2022-09-22T07:11:44.397Z,2.40
2022-09-22T07:14:12.775Z,2.63
2022-09-22T07:16:41.834Z,2.45
2022-09-22T07:19:11.979Z,2.40
2022-09-22T07:21:40.503Z,3.95
2022-09-22T07:24:09.466Z,1.67
2022-09-22T07:26:40.174Z,2.15
2022-09-22T07:29:13.184Z,2.88
2022-09-22T07:31:43.340Z,3.05
2022-09-22T07:34:14.261Z,2.22
2022-09-22T07:36:42.689Z,2.00
2022-09-22T07:39:13.380Z,2.42
2022-09-22T07:41:45.215Z,2.47
2022-09-22T07:44:32.960Z,2.45
2022-09-22T07:47:02.194Z,1.90
2022-09-22T07:49:32.377Z,1.80
2022-09-22T07:52:03.107Z,2.45
2022-09-22T07:54:34.502Z,2.65
2022-09-22T07:57:09.829Z,2.08
2022-09-22T07:59:39.212Z,3.63
2022-09-22T08:02:08.275Z,2.55
2022-09-22T08:04:41.768Z,2.50
2022-09-22T08:07:10.241Z,2.78
2022-09-22T08:09:39.517Z,3.22
2022-09-22T08:12:08.326Z,4.30
2022-09-22T08:14:36.667Z,2.15
2022-09-22T08:17:12.580Z,3.10
2022-09-22T08:19:44.772Z,2.25
2022-09-22T08:22:15.913Z,2.30
2022-09-22T08:24:45.721Z,3.45
2022-09-22T08:27:14.040Z,3.30
2022-09-22T08:29:44.007Z,2.45
2022-09-22T08:32:12.489Z,2.70
2022-09-22T08:34:42.755Z,2.40
2022-09-22T08:37:11.499Z,2.13
2022-09-22T08:39:40.632Z,2.63
2022-09-22T08:42:15.032Z,2.85
2022-09-22T08:44:52.458Z,3.33
2022-09-22T08:47:38.976Z,4.10
2022-09-22T08:50:41.702Z,2.38
2022-09-22T08:53:16.117Z,2.30
2022-09-22T08:55:48.800Z,3.92
2022-09-22T08:58:30.257Z,4.95
2022-09-22T09:01:07.656Z,3.97
2022-09-22T09:03:54.053Z,4.22
2022-09-22T09:06:31.808Z,3.38
2022-09-22T09:09:19.828Z,3.65
2022-09-22T09:12:06.135Z,6.13
2022-09-22T09:15:02.707Z,5.70
2022-09-22T09:17:35.033Z,4.93
2022-09-22T09:20:16.912Z,3.58
2022-09-22T09:22:52.169Z,5.55
2022-09-22T09:25:24.948Z,5.35
2022-09-22T09:27:58.338Z,6.90
2022-09-22T09:30:27.867Z,4.40
2022-09-22T09:33:00.699Z,5.22
2022-09-22T09:35:41.327Z,4.28
2022-09-22T09:38:14.782Z,5.15
2022-09-22T09:40:44.858Z,4.28
2022-09-22T09:43:14.071Z,4.30
2022-09-22T09:45:54.135Z,7.35
2022-09-22T09:48:32.405Z,6.82
2022-09-22T09:51:05.446Z,3.15
2022-09-22T09:53:41.491Z,4.65
2022-09-22T09:56:22.917Z,4.45
2022-09-22T09:59:19.162Z,5.50
2022-09-22T10:01:49.156Z,3.35
2022-09-22T10:04:34.423Z,3.22
2022-09-22T10:07:17.195Z,3.42
2022-09-22T10:09:50.094Z,4.43
2022-09-22T10:12:30.042Z,4.57
2022-09-22T10:14:59.730Z,5.28
2022-09-22T10:17:30.488Z,3.75
2022-09-22T10:20:21.992Z,4.50
2022-09-22T10:22:50.969Z,4.53
2022-09-22T10:25:27.400Z,2.88
2022-09-22T10:28:04.450Z,2.45
2022-09-22T10:30:37.580Z,3.70
2022-09-22T10:33:24.688Z,2.53
2022-09-22T10:36:09.216Z,3.30
2022-09-22T10:38:43.102Z,3.13
2022-09-22T10:41:26.482Z,3.60
2022-09-22T10:44:10.591Z,3.70
2022-09-22T10:47:24.785Z,2.05
2022-09-22T10:50:24.759Z,2.50
2022-09-22T10:53:00.194Z,3.53
2022-09-22T10:55:31.956Z,4.13
2022-09-22T10:58:34.858Z,2.08
2022-09-22T11:01:23.522Z,2.60
2022-09-22T11:04:10.101Z,2.85
2022-09-22T11:07:21.076Z,2.83
2022-09-22T11:10:16.174Z,2.03
2022-09-22T11:12:57.421Z,2.63
2022-09-22T11:15:44.220Z,2.25
2022-09-22T11:18:36.476Z,2.65
2022-09-22T11:21:19.219Z,1.73
2022-09-22T11:24:13.340Z,2.70
2022-09-22T11:26:49.825Z,3.25
2022-09-22T11:29:54.281Z,2.58
2022-09-22T11:32:42.496Z,2.53
2022-09-22T11:35:30.901Z,2.65
2022-09-22T11:38:14.286Z,2.60
2022-09-22T11:41:05.468Z,2.28
2022-09-22T11:43:48.217Z,1.35
2022-09-22T11:46:26.188Z,1.90
2022-09-22T11:49:15.590Z,3.00
2022-09-22T11:52:00.152Z,1.98
2022-09-22T11:54:50.750Z,2.17
2022-09-22T11:57:22.266Z,1.90
2022-09-22T11:59:53.878Z,2.05
2022-09-22T12:02:27.558Z,1.75
2022-09-22T12:05:03.160Z,1.50
2022-09-22T12:07:35.481Z,1.85
2022-09-22T12:10:09.373Z,1.55
2022-09-22T12:12:45.755Z,1.95
2022-09-22T12:15:24.450Z,2.05
2022-09-22T12:18:01.567Z,1.45
2022-09-22T12:20:53.937Z,2.15
2022-09-22T12:23:38.307Z,1.40
2022-09-22T12:26:11.927Z,2.75
2022-09-22T12:28:43.706Z,1.80
2022-09-22T12:31:15.421Z,1.15
2022-09-22T12:33:50.037Z,1.35
2022-09-22T12:36:32.077Z,1.58
2022-09-22T12:39:16.577Z,1.48
2022-09-22T12:41:48.421Z,2.22
2022-09-22T12:44:25.286Z,1.65
2022-09-22T12:46:57.620Z,1.70
2022-09-22T12:49:31.716Z,1.40
2022-09-22T12:52:03.103Z,1.52
2022-09-22T12:54:51.556Z,2.03
2022-09-22T12:57:26.522Z,2.97
2022-09-22T13:00:14.932Z,1.30
2022-09-22T13:02:44.858Z,1.75
2022-09-22T13:05:33.429Z,1.30
2022-09-22T13:08:04.433Z,1.30
2022-09-22T13:11:00.858Z,1.92
2022-09-22T13:13:37.849Z,1.27
2022-09-22T13:16:47.346Z,1.20
2022-09-22T13:19:16.773Z,1.73
2022-09-22T13:21:45.548Z,1.23
2022-09-22T13:24:26.583Z,1.35
2022-09-22T13:27:05.847Z,1.88
2022-09-22T13:29:34.578Z,1.05
2022-09-22T13:32:18.532Z,1.30
2022-09-22T13:34:48.419Z,1.65
2022-09-22T13:37:22.388Z,2.25
2022-09-22T13:39:53.817Z,1.25
2022-09-22T13:42:26.719Z,1.40
2022-09-22T13:44:59.504Z,1.33
2022-09-22T13:47:30.267Z,1.30
2022-09-22T13:50:04.800Z,1.35
2022-09-22T13:52:38.921Z,1.20
2022-09-22T13:55:11.399Z,2.15
2022-09-22T13:57:41.696Z,1.35
2022-09-22T14:00:24.861Z,1.13
2022-09-22T14:02:56.940Z,1.88
2022-09-22T14:05:29.329Z,1.27
2022-09-22T14:08:18.307Z,1.10
2022-09-22T14:10:49.860Z,1.25
2022-09-22T14:13:37.619Z,1.15
2022-09-22T14:16:13.849Z,1.23
2022-09-22T14:18:46.736Z,1.08
2022-09-22T14:21:15.532Z,1.30
2022-09-22T14:24:00.291Z,2.88
2022-09-22T14:26:42.967Z,1.85
2022-09-22T14:29:22.515Z,1.27
2022-09-22T14:32:02.994Z,2.45
2022-09-22T14:34:37.926Z,2.85
2022-09-22T14:37:17.897Z,2.80
2022-09-22T14:39:46.767Z,1.77
2022-09-22T14:42:28.741Z,2.43
2022-09-22T14:45:21.213Z,1.85
2022-09-22T14:48:19.565Z,2.65
2022-09-22T14:50:54.339Z,2.40
2022-09-22T14:53:26.120Z,1.15
2022-09-22T14:55:56.857Z,1.60
2022-09-22T14:58:27.525Z,3.85
2022-09-22T15:01:15.581Z,2.78
2022-09-22T15:03:47.856Z,1.73
2022-09-22T15:06:17.990Z,1.17
2022-09-22T15:08:52.436Z,3.03
2022-09-22T15:11:21.246Z,4.65
2022-09-22T15:13:52.886Z,1.25
2022-09-22T15:16:37.833Z,1.70
2022-09-22T15:19:07.886Z,2.22
2022-09-22T15:21:40.902Z,0.90
2022-09-22T15:24:12.366Z,1.13
2022-09-22T15:26:42.066Z,1.00
2022-09-22T15:29:11.985Z,1.08
2022-09-22T15:31:41.040Z,1.10
2022-09-22T15:34:10.649Z,1.33
2022-09-22T15:36:48.240Z,1.52
2022-09-22T15:39:22.418Z,1.15
2022-09-22T15:41:52.037Z,2.55
2022-09-22T15:44:20.799Z,1.65
2022-09-22T15:46:52.750Z,0.80
2022-09-22T15:49:26.432Z,1.15
2022-09-22T15:51:56.996Z,0.88
2022-09-22T15:54:26.209Z,0.95
2022-09-22T15:56:57.340Z,1.02
2022-09-22T15:59:28.479Z,0.82
2022-09-22T16:02:00.975Z,1.42
2022-09-22T16:04:31.742Z,1.33
2022-09-22T16:07:05.517Z,1.35
2022-09-22T16:09:35.098Z,1.05
2022-09-22T16:12:04.789Z,0.80
2022-09-22T16:14:37.141Z,1.73
2022-09-22T16:17:07.553Z,1.00
2022-09-22T16:19:36.646Z,0.77
2022-09-22T16:22:09.057Z,0.90
2022-09-22T16:24:38.984Z,0.77
2022-09-22T16:27:08.191Z,1.02
2022-09-22T16:29:39.061Z,1.67
2022-09-22T16:32:08.143Z,1.85
2022-09-22T16:34:37.544Z,0.98
2022-09-22T16:37:18.103Z,1.15
2022-09-22T16:39:52.133Z,0.65
2022-09-22T16:42:27.557Z,1.70
2022-09-22T16:44:56.421Z,0.93
2022-09-22T16:47:28.662Z,0.80
2022-09-22T16:49:58.162Z,0.93
2022-09-22T16:52:32.294Z,0.80
2022-09-22T16:55:03.756Z,0.88
2022-09-22T16:57:33.628Z,1.63
2022-09-22T17:00:03.644Z,1.02
2022-09-22T17:02:33.058Z,1.00
2022-09-22T17:05:02.342Z,0.93
2022-09-22T17:07:32.611Z,0.70
2022-09-22T17:10:01.691Z,1.00
2022-09-22T17:12:30.651Z,0.80
2022-09-22T17:15:00.503Z,1.67
2022-09-22T17:17:30.735Z,1.98
2022-09-22T17:20:02.900Z,1.02
2022-09-22T17:22:33.785Z,0.90
2022-09-22T17:25:03.052Z,1.02
2022-09-22T17:27:32.261Z,0.90
2022-09-22T17:30:00.832Z,0.80
2022-09-22T17:32:32.361Z,2.03
2022-09-22T17:35:01.556Z,1.50
2022-09-22T17:37:31.282Z,1.10
2022-09-22T17:40:03.498Z,1.45
2022-09-22T17:42:46.373Z,1.20
2022-09-22T17:45:18.514Z,1.65
2022-09-22T17:48:16.278Z,1.58
2022-09-22T17:51:04.905Z,1.55
2022-09-22T17:53:50.573Z,1.70
2022-09-22T17:56:20.850Z,1.40
2022-09-22T17:58:49.709Z,2.20
2022-09-22T18:01:19.370Z,1.50
2022-09-22T18:03:48.819Z,1.30
2022-09-22T18:06:19.344Z,1.30
2022-09-22T18:08:49.340Z,1.63
2022-09-22T18:11:19.622Z,2.67
2022-09-22T18:13:51.680Z,2.20
2022-09-22T18:16:22.000Z,1.75
2022-09-22T18:18:50.616Z,2.38
2022-09-22T18:21:19.565Z,1.52
2022-09-22T18:23:48.597Z,2.45
2022-09-22T18:26:18.132Z,2.17
2022-09-22T18:28:52.658Z,1.80
2022-09-22T18:31:23.732Z,1.70
2022-09-22T18:33:52.954Z,1.70
2022-09-22T18:36:21.672Z,1.95
2022-09-22T18:38:51.071Z,2.25
2022-09-22T18:41:19.970Z,3.33
2022-09-22T18:43:52.330Z,1.50
2022-09-22T18:46:21.079Z,1.85
2022-09-22T18:48:57.475Z,2.08
2022-09-22T18:51:27.513Z,1.77
2022-09-22T18:53:57.048Z,2.83
2022-09-22T18:56:26.923Z,1.65
2022-09-22T18:58:57.581Z,1.40
2022-09-22T19:01:26.533Z,2.25
2022-09-22T19:03:55.328Z,1.88
2022-09-22T19:06:24.391Z,1.90
2022-09-22T19:08:53.026Z,1.45
2022-09-22T19:11:22.936Z,1.55
2022-09-22T19:13:55.580Z,1.83
2022-09-22T19:16:25.879Z,2.38
2022-09-22T19:18:54.605Z,1.48
2022-09-22T19:21:25.082Z,1.70
2022-09-22T19:23:53.938Z,1.60
2022-09-22T19:26:23.305Z,1.27
2022-09-22T19:28:51.979Z,1.73
2022-09-22T19:31:20.791Z,1.40
2022-09-22T19:33:51.129Z,1.33
2022-09-22T19:36:22.576Z,2.38
2022-09-22T19:38:51.001Z,1.75
2022-09-22T19:41:21.283Z,1.73
2022-09-22T19:43:50.024Z,3.97
2022-09-22T19:46:18.957Z,4.03
2022-09-22T19:48:48.706Z,3.45
2022-09-22T19:51:19.316Z,2.67
2022-09-22T19:53:50.717Z,3.20
2022-09-22T19:56:21.371Z,1.88
2022-09-22T19:58:51.567Z,1.73
2022-09-22T20:01:30.003Z,2.00
2022-09-22T20:04:00.103Z,1.40
2022-09-22T20:06:30.629Z,1.48
2022-09-22T20:09:02.853Z,2.13
2022-09-22T20:11:33.065Z,1.30
2022-09-22T20:14:18.986Z,2.08
2022-09-22T20:16:47.952Z,1.83
2022-09-22T20:19:16.748Z,1.67
2022-09-22T20:21:47.880Z,1.60
2022-09-22T20:24:18.117Z,1.88
2022-09-22T20:26:47.980Z,1.52
2022-09-22T20:29:17.626Z,1.40
2022-09-22T20:31:46.203Z,1.60
2022-09-22T20:34:16.592Z,2.05
2022-09-22T20:36:47.424Z,1.52
2022-09-22T20:39:16.290Z,1.52
2022-09-22T20:41:45.328Z,2.03
2022-09-22T20:44:15.525Z,1.50
2022-09-22T20:46:45.083Z,3.67
2022-09-22T20:49:15.191Z,1.88
2022-09-22T20:51:47.934Z,1.40
2022-09-22T20:54:16.950Z,1.38
2022-09-22T20:56:45.538Z,1.80
2022-09-22T20:59:14.205Z,1.55
2022-09-22T21:01:43.321Z,1.67
2022-09-22T21:04:16.143Z,1.70
2022-09-22T21:06:46.674Z,1.20
2022-09-22T21:09:32.407Z,1.83
2022-09-22T21:12:01.296Z,1.40
2022-09-22T21:14:33.571Z,2.50
2022-09-22T21:17:04.061Z,2.38
2022-09-22T21:19:34.834Z,1.30
2022-09-22T21:22:05.221Z,2.00
2022-09-22T21:24:34.311Z,1.70
2022-09-22T21:27:03.069Z,1.48
2022-09-22T21:29:31.783Z,2.00
2022-09-22T21:32:00.612Z,1.98
2022-09-22T21:34:29.888Z,1.75
2022-09-22T21:36:58.646Z,1.40
2022-09-22T21:39:28.627Z,1.60
2022-09-22T21:41:57.207Z,2.47
2022-09-22T21:44:25.797Z,1.60
2022-09-22T21:46:54.547Z,1.30
2022-09-22T21:49:23.121Z,1.75
2022-09-22T21:51:51.893Z,1.60
2022-09-22T21:54:21.009Z,1.85
2022-09-22T21:56:51.252Z,1.23
2022-09-22T21:59:20.037Z,1.50
2022-09-22T22:01:48.774Z,1.55
2022-09-22T22:04:17.855Z,1.40
2022-09-22T22:06:47.404Z,1.33
2022-09-22T22:09:18.314Z,1.42
2022-09-22T22:11:49.574Z,1.55
2022-09-22T22:14:21.348Z,1.52
2022-09-22T22:16:51.457Z,1.70
2022-09-22T22:19:22.457Z,2.17
2022-09-22T22:21:52.275Z,1.60
2022-09-22T22:24:39.303Z,1.00
2022-09-22T22:27:10.265Z,1.80
2022-09-22T22:29:41.196Z,1.63
2022-09-22T22:32:11.763Z,1.92
2022-09-22T22:34:40.282Z,1.27
2022-09-22T22:37:10.457Z,1.42
2022-09-22T22:39:39.378Z,1.48
2022-09-22T22:42:08.582Z,1.85
2022-09-22T22:44:37.390Z,1.33
2022-09-22T22:47:08.617Z,1.33
2022-09-22T22:49:37.234Z,1.50
2022-09-22T22:52:06.262Z,1.38
2022-09-22T22:54:35.250Z,1.20
2022-09-22T22:57:03.946Z,1.30
2022-09-22T22:59:32.675Z,1.98
2022-09-22T23:02:02.160Z,1.20
2022-09-22T23:04:33.143Z,1.30
2022-09-22T23:07:01.917Z,1.25
2022-09-22T23:09:30.247Z,2.05
2022-09-22T23:11:58.922Z,1.30
2022-09-22T23:14:28.117Z,1.38
2022-09-22T23:16:58.422Z,1.33
2022-09-22T23:19:27.084Z,1.42
2022-09-22T23:21:59.527Z,2.42
2022-09-22T23:24:28.157Z,2.10
2022-09-22T23:26:57.259Z,1.13
2022-09-22T23:29:25.630Z,1.33
2022-09-22T23:31:54.253Z,1.25
2022-09-22T23:34:24.817Z,1.52
2022-09-22T23:36:53.523Z,1.27
2022-09-22T23:39:24.403Z,1.45
2022-09-22T23:41:53.080Z,1.48
2022-09-22T23:44:21.962Z,1.90
2022-09-22T23:46:50.738Z,1.30
2022-09-22T23:49:19.290Z,1.08
2022-09-22T23:51:48.689Z,1.30
2022-09-22T23:54:17.573Z,1.30
2022-09-22T23:56:47.556Z,1.65
2022-09-22T23:59:16.112Z,1.25
